createdAt,value
2018-08-12T00:00:58.464Z,20.00
2018-08-12T00:03:27.709Z,19.80
2018-08-12T00:05:56.912Z,19.70
2018-08-12T00:08:26.023Z,19.70
2018-08-12T00:10:55.153Z,19.60
2018-08-12T00:13:24.349Z,19.50
2018-08-12T00:15:52.726Z,19.20
2018-08-12T00:18:20.899Z,19.00
2018-08-12T00:20:50.095Z,19.00
2018-08-12T00:23:19.205Z,19.00
2018-08-12T00:25:48.275Z,19.00
2018-08-12T00:28:17.544Z,19.00
2018-08-12T00:30:46.759Z,19.10
2018-08-12T00:33:15.839Z,19.00
2018-08-12T00:35:45.023Z,19.00
2018-08-12T00:38:14.054Z,19.00
2018-08-12T00:40:43.075Z,19.00
2018-08-12T00:43:12.224Z,19.00
2018-08-12T00:45:41.403Z,19.00
2018-08-12T00:48:10.583Z,19.00
2018-08-12T00:50:39.764Z,19.10
2018-08-12T00:53:08.944Z,19.10
2018-08-12T00:55:38.285Z,19.00
2018-08-12T00:58:07.602Z,19.20
2018-08-12T01:00:36.779Z,19.10
2018-08-12T01:03:06.011Z,19.10
2018-08-12T01:05:34.834Z,19.00
2018-08-12T01:08:04.043Z,19.00
2018-08-12T01:10:33.286Z,18.90
2018-08-12T01:13:02.559Z,18.80
2018-08-12T01:15:31.924Z,18.80
2018-08-12T01:18:01.068Z,18.90
2018-08-12T01:20:30.338Z,19.10
2018-08-12T01:22:59.678Z,19.10
2018-08-12T01:25:28.893Z,19.10
2018-08-12T01:27:58.087Z,19.00
2018-08-12T01:30:27.369Z,19.00
2018-08-12T01:32:56.556Z,19.00
2018-08-12T01:35:25.695Z,19.00
2018-08-12T01:37:54.875Z,19.10
2018-08-12T01:40:24.225Z,19.10
2018-08-12T01:42:53.359Z,19.00
2018-08-12T01:45:22.609Z,19.00
2018-08-12T01:47:51.857Z,18.90
2018-08-12T01:50:21.214Z,18.80
2018-08-12T01:52:50.357Z,18.90
2018-08-12T01:55:19.700Z,18.90
2018-08-12T01:57:48.853Z,19.00
2018-08-12T02:00:20.783Z,19.00
2018-08-12T02:02:50.220Z,19.00
2018-08-12T02:05:19.708Z,19.00
2018-08-12T02:07:48.788Z,19.00
2018-08-12T02:10:18.120Z,18.90
2018-08-12T02:12:47.209Z,18.90
2018-08-12T02:15:16.390Z,18.80
2018-08-12T02:17:45.639Z,18.90
2018-08-12T02:20:14.899Z,18.90
2018-08-12T02:22:43.971Z,19.00
2018-08-12T02:25:13.351Z,19.00
2018-08-12T02:27:42.536Z,19.00
2018-08-12T02:30:13.076Z,19.00
2018-08-12T02:32:43.269Z,19.10
2018-08-12T02:35:12.528Z,19.10
2018-08-12T02:37:42.195Z,19.00
2018-08-12T02:40:10.836Z,19.00
2018-08-12T02:42:40.181Z,18.90
2018-08-12T02:45:11.472Z,18.80
2018-08-12T02:47:40.710Z,18.80
2018-08-12T02:50:10.062Z,18.90
2018-08-12T02:52:39.268Z,19.00
2018-08-12T02:55:09.653Z,18.90
2018-08-12T02:57:38.706Z,18.80
2018-08-12T03:00:08.845Z,18.70
2018-08-12T03:02:38.201Z,18.70
2018-08-12T03:05:07.056Z,18.80
2018-08-12T03:07:36.401Z,18.70
2018-08-12T03:10:06.340Z,18.80
2018-08-12T03:12:35.527Z,18.80
2018-08-12T03:15:05.537Z,18.80
2018-08-12T03:17:33.717Z,18.60
2018-08-12T03:20:02.927Z,18.60
2018-08-12T03:22:32.228Z,18.80
2018-08-12T03:25:01.275Z,18.80
2018-08-12T03:27:30.511Z,18.80
2018-08-12T03:29:59.757Z,18.80
2018-08-12T03:32:28.905Z,18.90
2018-08-12T03:34:58.087Z,18.80
2018-08-12T03:37:27.276Z,18.90
2018-08-12T03:39:56.455Z,18.80
2018-08-12T03:42:25.455Z,18.80
2018-08-12T03:44:54.520Z,18.80
2018-08-12T03:47:23.771Z,18.80
2018-08-12T03:49:52.857Z,18.90
2018-08-12T03:52:21.943Z,18.90
2018-08-12T03:54:51.133Z,18.90
2018-08-12T03:57:20.388Z,19.00
2018-08-12T03:59:49.524Z,19.00
2018-08-12T04:02:18.624Z,19.00
2018-08-12T04:04:47.727Z,19.10
2018-08-12T04:07:16.810Z,19.10
2018-08-12T04:09:45.920Z,19.10
2018-08-12T04:12:14.888Z,19.10
2018-08-12T04:14:44.207Z,19.00
2018-08-12T04:17:13.500Z,19.00
2018-08-12T04:19:42.589Z,19.00
2018-08-12T04:22:11.820Z,19.00
2018-08-12T04:24:41.001Z,19.00
2018-08-12T04:27:10.088Z,18.90
2018-08-12T04:29:39.105Z,19.00
2018-08-12T04:32:08.377Z,18.90
2018-08-12T04:34:37.519Z,19.00
2018-08-12T04:37:06.675Z,19.00
2018-08-12T04:39:35.664Z,19.10
2018-08-12T04:42:04.964Z,19.10
2018-08-12T04:44:34.376Z,19.10
2018-08-12T04:47:03.587Z,19.10
2018-08-12T04:49:32.563Z,19.00
2018-08-12T04:52:01.723Z,19.00
2018-08-12T04:54:30.978Z,19.00
2018-08-12T04:57:00.356Z,18.90
2018-08-12T04:59:29.597Z,18.90
2018-08-12T05:01:58.737Z,18.90
2018-08-12T05:04:27.844Z,18.80
2018-08-12T05:06:56.952Z,18.90
2018-08-12T05:09:25.963Z,18.90
2018-08-12T05:11:55.271Z,19.00
2018-08-12T05:14:24.429Z,19.00
2018-08-12T05:16:53.531Z,18.90
2018-08-12T05:19:22.629Z,19.00
2018-08-12T05:21:51.808Z,19.00
2018-08-12T05:24:20.937Z,19.00
2018-08-12T05:26:50.208Z,19.00
2018-08-12T05:29:19.388Z,19.00
2018-08-12T05:31:48.591Z,19.00
2018-08-12T05:34:17.776Z,19.10
2018-08-12T05:36:47.027Z,19.10
2018-08-12T05:39:16.301Z,19.20
2018-08-12T05:41:45.389Z,19.20
2018-08-12T05:44:14.601Z,19.30
2018-08-12T05:46:43.795Z,19.50
2018-08-12T05:49:12.898Z,19.50
2018-08-12T05:51:42.032Z,19.50
2018-08-12T05:54:10.159Z,19.40
2018-08-12T05:56:38.377Z,19.30
2018-08-12T05:59:06.549Z,19.30
2018-08-12T06:01:34.636Z,19.30
2018-08-12T06:04:02.791Z,19.30
2018-08-12T06:06:31.032Z,19.30
2018-08-12T06:08:59.314Z,19.30
2018-08-12T06:11:27.414Z,19.20
2018-08-12T06:13:55.495Z,19.20
2018-08-12T06:16:23.649Z,19.20
2018-08-12T06:18:51.711Z,19.20
2018-08-12T06:21:19.803Z,19.20
2018-08-12T06:23:47.872Z,19.30
2018-08-12T06:26:16.081Z,19.30
2018-08-12T06:28:45.180Z,19.40
2018-08-12T06:31:13.313Z,19.50
2018-08-12T06:33:41.357Z,19.70
2018-08-12T06:36:09.426Z,19.70
2018-08-12T06:38:38.624Z,19.80
2018-08-12T06:41:06.824Z,19.90
2018-08-12T06:43:36.040Z,20.00
2018-08-12T06:46:04.304Z,20.10
2018-08-12T06:48:32.380Z,20.20
2018-08-12T06:51:00.647Z,20.20
2018-08-12T06:53:29.895Z,20.30
2018-08-12T06:55:59.014Z,20.30
2018-08-12T06:58:28.091Z,20.30
2018-08-12T07:00:57.211Z,20.40
2018-08-12T07:03:26.415Z,20.50
2018-08-12T07:05:55.563Z,20.50
2018-08-12T07:08:24.752Z,20.60
2018-08-12T07:10:53.749Z,20.70
2018-08-12T07:13:22.880Z,20.80
2018-08-12T07:15:52.079Z,20.90
2018-08-12T07:18:21.290Z,21.00
2018-08-12T07:20:50.532Z,21.10
2018-08-12T07:23:19.848Z,21.10
2018-08-12T07:25:49.162Z,21.10
2018-08-12T07:28:18.373Z,21.10
2018-08-12T07:30:47.665Z,21.30
2018-08-12T07:33:16.747Z,21.30
2018-08-12T07:35:45.928Z,21.40
2018-08-12T07:38:14.925Z,21.50
2018-08-12T07:40:43.971Z,21.50
2018-08-12T07:43:13.239Z,21.50
2018-08-12T07:45:42.580Z,21.60
2018-08-12T07:48:11.820Z,21.70
2018-08-12T07:50:41.014Z,21.80
2018-08-12T07:53:10.259Z,21.90
2018-08-12T07:55:39.558Z,21.90
2018-08-12T07:58:08.515Z,22.00
2018-08-12T08:00:37.801Z,22.10
2018-08-12T08:03:06.922Z,22.20
2018-08-12T08:05:35.863Z,22.40
2018-08-12T08:08:05.614Z,22.60
2018-08-12T08:10:34.482Z,22.60
2018-08-12T08:13:03.344Z,22.60
2018-08-12T08:15:32.276Z,22.80
2018-08-12T08:18:01.175Z,22.80
2018-08-12T08:20:30.104Z,22.90
2018-08-12T08:22:59.021Z,23.00
2018-08-12T08:25:28.116Z,23.10
2018-08-12T08:27:56.994Z,23.30
2018-08-12T08:30:25.876Z,23.40
2018-08-12T08:32:55.167Z,23.50
2018-08-12T08:35:24.161Z,23.70
2018-08-12T08:37:53.123Z,23.80
2018-08-12T08:40:22.278Z,24.00
2018-08-12T08:42:51.172Z,24.00
2018-08-12T08:45:21.595Z,24.10
2018-08-12T08:47:51.948Z,24.10
2018-08-12T08:50:22.314Z,24.20
2018-08-12T08:52:51.346Z,24.30
2018-08-12T08:55:20.192Z,24.40
2018-08-12T08:57:49.085Z,24.50
2018-08-12T09:00:19.623Z,24.40
2018-08-12T09:02:50.154Z,24.60
2018-08-12T09:05:19.587Z,24.60
2018-08-12T09:07:48.853Z,24.70
2018-08-12T09:10:18.808Z,24.70
2018-08-12T09:12:47.790Z,24.60
2018-08-12T09:15:18.090Z,24.70
2018-08-12T09:17:47.593Z,24.70
2018-08-12T09:20:18.749Z,24.60
2018-08-12T09:22:47.630Z,24.50
2018-08-12T09:25:17.001Z,24.50
2018-08-12T09:27:46.253Z,24.50
2018-08-12T09:30:17.372Z,24.40
2018-08-12T09:32:46.957Z,24.40
2018-08-12T09:35:16.316Z,24.50
2018-08-12T09:37:45.308Z,24.60
2018-08-12T09:40:17.830Z,24.70
2018-08-12T09:42:47.802Z,24.80
2018-08-12T09:45:19.544Z,24.90
2018-08-12T09:47:48.780Z,25.20
2018-08-12T09:50:19.166Z,25.30
2018-08-12T09:52:49.386Z,25.40
2018-08-12T09:55:19.111Z,25.50
2018-08-12T09:57:48.201Z,25.60
2018-08-12T10:00:23.249Z,25.70
2018-08-12T10:02:54.110Z,25.70
2018-08-12T10:05:23.430Z,25.70
2018-08-12T10:07:52.667Z,25.70
2018-08-12T10:10:22.073Z,25.70
2018-08-12T10:12:51.255Z,25.70
2018-08-12T10:15:20.183Z,25.80
2018-08-12T10:17:52.155Z,25.90
2018-08-12T10:20:21.585Z,25.90
2018-08-12T10:22:50.925Z,26.00
2018-08-12T10:25:20.203Z,26.20
2018-08-12T10:27:49.327Z,26.20
2018-08-12T10:30:18.522Z,26.20
2018-08-12T10:32:47.818Z,26.30
2018-08-12T10:35:17.631Z,26.40
2018-08-12T10:37:46.961Z,26.40
2018-08-12T10:40:17.859Z,26.40
2018-08-12T10:42:47.735Z,26.50
2018-08-12T10:45:17.047Z,26.60
2018-08-12T10:47:46.436Z,26.70
2018-08-12T10:50:19.316Z,26.90
2018-08-12T10:52:49.107Z,27.00
2018-08-12T10:55:20.887Z,27.10
2018-08-12T10:57:50.200Z,27.10
2018-08-12T11:00:23.206Z,27.20
2018-08-12T11:02:52.982Z,27.30
2018-08-12T11:05:22.235Z,27.40
2018-08-12T11:07:53.040Z,27.60
2018-08-12T11:10:22.284Z,27.70
2018-08-12T11:12:53.393Z,27.80
2018-08-12T11:15:22.510Z,27.90
2018-08-12T11:17:51.788Z,28.10
2018-08-12T11:20:21.070Z,28.10
2018-08-12T11:22:50.706Z,28.00
2018-08-12T11:25:20.329Z,28.00
2018-08-12T11:27:49.241Z,27.90
2018-08-12T11:30:18.864Z,28.10
2018-08-12T11:32:48.249Z,28.10
2018-08-12T11:35:18.674Z,28.20
2018-08-12T11:37:47.519Z,28.30
2018-08-12T11:40:16.859Z,28.40
2018-08-12T11:42:45.772Z,28.50
2018-08-12T11:45:16.096Z,28.60
2018-08-12T11:47:46.058Z,28.70
2018-08-12T11:50:15.639Z,28.80
2018-08-12T11:52:45.306Z,28.90
2018-08-12T11:55:16.797Z,29.10
2018-08-12T11:57:45.754Z,29.30
2018-08-12T12:00:16.727Z,29.50
2018-08-12T12:02:47.556Z,29.70
2018-08-12T12:05:16.464Z,30.00
2018-08-12T12:07:45.609Z,30.10
2018-08-12T12:10:16.959Z,30.20
2018-08-12T12:12:47.241Z,30.30
2018-08-12T12:15:16.828Z,30.40
2018-08-12T12:17:46.549Z,30.60
2018-08-12T12:20:16.346Z,30.60
2018-08-12T12:22:45.938Z,30.60
2018-08-12T12:25:16.025Z,30.70
2018-08-12T12:27:45.043Z,30.80
2018-08-12T12:30:18.358Z,31.00
2018-08-12T12:32:48.079Z,31.20
2018-08-12T12:35:16.960Z,31.30
2018-08-12T12:37:45.909Z,31.40
2018-08-12T12:40:16.245Z,31.50
2018-08-12T12:42:45.686Z,31.60
2018-08-12T12:45:15.098Z,31.80
2018-08-12T12:47:44.525Z,32.00
2018-08-12T12:50:15.570Z,32.00
2018-08-12T12:52:44.598Z,32.10
2018-08-12T12:55:13.505Z,32.20
2018-08-12T12:57:42.568Z,32.30
2018-08-12T13:00:13.545Z,32.40
2018-08-12T13:02:42.438Z,32.50
2018-08-12T13:05:13.690Z,32.60
2018-08-12T13:07:43.422Z,32.70
2018-08-12T13:10:13.030Z,32.90
2018-08-12T13:12:42.677Z,32.90
2018-08-12T13:15:12.688Z,33.00
2018-08-12T13:17:41.714Z,33.00
2018-08-12T13:20:15.925Z,33.10
2018-08-12T13:22:46.051Z,33.30
2018-08-12T13:25:16.851Z,33.30
2018-08-12T13:27:45.946Z,33.50
2018-08-12T13:30:15.879Z,33.50
2018-08-12T13:32:45.782Z,33.60
2018-08-12T13:35:14.652Z,33.60
2018-08-12T13:37:43.631Z,33.50
2018-08-12T13:40:13.984Z,33.60
2018-08-12T13:42:43.688Z,33.40
2018-08-12T13:45:13.103Z,33.50
2018-08-12T13:47:43.542Z,33.40
2018-08-12T13:50:21.170Z,33.50
2018-08-12T13:52:50.753Z,33.40
2018-08-12T13:55:20.329Z,33.60
2018-08-12T13:57:50.114Z,33.80
2018-08-12T14:00:21.585Z,34.10
2018-08-12T14:02:50.531Z,34.10
2018-08-12T14:05:19.924Z,34.20
2018-08-12T14:07:49.316Z,34.20
2018-08-12T14:10:18.215Z,34.30
2018-08-12T14:12:47.130Z,34.50
2018-08-12T14:15:18.745Z,34.60
2018-08-12T14:17:48.641Z,34.50
2018-08-12T14:20:19.703Z,34.50
2018-08-12T14:22:48.644Z,34.50
2018-08-12T14:25:17.703Z,34.40
2018-08-12T14:27:46.528Z,34.20
2018-08-12T14:30:17.579Z,34.20
2018-08-12T14:32:47.216Z,34.50
2018-08-12T14:35:16.180Z,34.40
2018-08-12T14:37:45.159Z,34.60
2018-08-12T14:40:14.619Z,34.50
2018-08-12T14:42:43.783Z,34.50
2018-08-12T14:45:13.727Z,34.40
2018-08-12T14:47:42.906Z,34.40
2018-08-12T14:50:14.544Z,34.40
2018-08-12T14:52:43.525Z,34.60
2018-08-12T14:55:13.079Z,34.50
2018-08-12T14:57:42.817Z,34.50
2018-08-12T15:00:15.124Z,34.60
2018-08-12T15:02:44.846Z,34.70
2018-08-12T15:05:13.663Z,34.60
2018-08-12T15:07:42.514Z,34.60
2018-08-12T15:10:12.018Z,34.50
2018-08-12T15:12:41.957Z,34.60
2018-08-12T15:15:12.417Z,34.50
2018-08-12T15:17:42.626Z,34.50
2018-08-12T15:20:11.925Z,34.40
2018-08-12T15:22:42.176Z,34.40
2018-08-12T15:25:13.252Z,34.50
2018-08-12T15:27:42.279Z,34.70
2018-08-12T15:30:11.600Z,34.70
2018-08-12T15:32:40.646Z,34.50
2018-08-12T15:35:09.947Z,34.30
2018-08-12T15:37:38.947Z,34.10
2018-08-12T15:40:09.928Z,34.10
2018-08-12T15:42:38.965Z,34.20
2018-08-12T15:45:10.486Z,34.10
2018-08-12T15:47:39.877Z,34.10
2018-08-12T15:50:09.811Z,34.00
2018-08-12T15:52:39.131Z,34.00
2018-08-12T15:55:08.570Z,33.90
2018-08-12T15:57:37.492Z,34.00
2018-08-12T16:00:10.869Z,33.80
2018-08-12T16:02:39.764Z,33.40
2018-08-12T16:05:08.737Z,33.20
2018-08-12T16:07:37.656Z,33.20
2018-08-12T16:10:10.056Z,33.20
2018-08-12T16:12:38.945Z,33.20
2018-08-12T16:15:10.105Z,33.10
2018-08-12T16:17:39.467Z,32.90
2018-08-12T16:20:08.799Z,32.80
2018-08-12T16:22:37.951Z,32.70
2018-08-12T16:25:09.335Z,32.50
2018-08-12T16:27:38.329Z,32.30
2018-08-12T16:30:08.907Z,32.20
2018-08-12T16:32:37.858Z,32.10
2018-08-12T16:35:07.647Z,31.70
2018-08-12T16:37:36.725Z,31.50
2018-08-12T16:40:07.425Z,31.30
2018-08-12T16:42:36.864Z,31.20
2018-08-12T16:45:06.760Z,31.30
2018-08-12T16:47:35.865Z,31.30
2018-08-12T16:50:06.213Z,31.30
2018-08-12T16:52:35.248Z,31.30
2018-08-12T16:55:05.114Z,31.10
2018-08-12T16:57:33.934Z,31.00
2018-08-12T17:00:03.372Z,30.80
2018-08-12T17:02:32.386Z,30.60
2018-08-12T17:05:01.261Z,30.40
2018-08-12T17:07:30.207Z,30.30
2018-08-12T17:09:59.442Z,30.20
2018-08-12T17:12:28.615Z,30.10
2018-08-12T17:14:57.773Z,30.00
2018-08-12T17:17:27.008Z,29.80
2018-08-12T17:19:56.275Z,29.70
2018-08-12T17:22:25.827Z,29.50
2018-08-12T17:24:55.025Z,29.40
2018-08-12T17:27:24.013Z,29.30
2018-08-12T17:29:53.241Z,29.20
2018-08-12T17:32:22.873Z,29.00
2018-08-12T17:34:52.018Z,28.80
2018-08-12T17:37:21.206Z,28.70
2018-08-12T17:39:50.538Z,28.60
2018-08-12T17:42:19.796Z,28.50
2018-08-12T17:44:49.131Z,28.40
2018-08-12T17:47:18.396Z,28.40
2018-08-12T17:49:47.615Z,28.30
2018-08-12T17:52:16.786Z,28.30
2018-08-12T17:54:45.993Z,28.20
2018-08-12T17:57:15.332Z,28.10
2018-08-12T17:59:44.496Z,28.00
2018-08-12T18:02:13.578Z,27.90
2018-08-12T18:04:42.883Z,27.90
2018-08-12T18:07:12.184Z,27.80
2018-08-12T18:09:41.435Z,27.70
2018-08-12T18:12:10.695Z,27.60
2018-08-12T18:14:39.909Z,27.50
2018-08-12T18:17:09.193Z,27.40
2018-08-12T18:19:38.396Z,27.30
2018-08-12T18:22:07.659Z,27.10
2018-08-12T18:24:37.012Z,27.10
2018-08-12T18:27:06.202Z,27.00
2018-08-12T18:29:35.570Z,26.90
2018-08-12T18:32:04.899Z,26.80
2018-08-12T18:34:34.119Z,26.70
2018-08-12T18:37:04.249Z,26.60
2018-08-12T18:39:33.494Z,26.60
2018-08-12T18:42:02.577Z,26.50
2018-08-12T18:44:31.792Z,26.50
2018-08-12T18:47:01.040Z,26.20
2018-08-12T18:49:30.299Z,26.10
2018-08-12T18:51:59.604Z,26.10
2018-08-12T18:54:28.691Z,26.10
2018-08-12T18:56:57.786Z,26.10
2018-08-12T18:59:26.652Z,26.00
2018-08-12T19:01:55.767Z,26.00
2018-08-12T19:04:24.988Z,26.00
2018-08-12T19:06:54.267Z,25.90
2018-08-12T19:09:23.452Z,25.80
2018-08-12T19:11:52.573Z,25.80
2018-08-12T19:14:21.719Z,25.70
2018-08-12T19:16:50.935Z,25.70
2018-08-12T19:19:20.204Z,25.70
2018-08-12T19:21:49.367Z,25.60
2018-08-12T19:24:18.734Z,25.50
2018-08-12T19:26:47.830Z,25.50
2018-08-12T19:29:17.060Z,25.30
2018-08-12T19:31:46.124Z,25.10
2018-08-12T19:34:15.253Z,25.20
2018-08-12T19:36:44.250Z,25.10
2018-08-12T19:39:13.414Z,25.20
2018-08-12T19:41:42.503Z,25.10
2018-08-12T19:44:11.705Z,25.10
2018-08-12T19:46:41.015Z,25.20
2018-08-12T19:49:10.122Z,25.10
2018-08-12T19:51:39.280Z,24.90
2018-08-12T19:54:08.380Z,24.60
2018-08-12T19:56:37.470Z,24.50
2018-08-12T19:59:06.569Z,24.40
2018-08-12T20:01:35.700Z,24.40
2018-08-12T20:04:04.919Z,24.30
2018-08-12T20:06:34.244Z,24.10
2018-08-12T20:09:03.613Z,24.10
2018-08-12T20:11:32.879Z,24.00
2018-08-12T20:14:02.006Z,24.00
2018-08-12T20:16:31.381Z,24.10
2018-08-12T20:19:00.460Z,24.00
2018-08-12T20:21:29.660Z,23.90
2018-08-12T20:23:58.863Z,23.90
2018-08-12T20:26:28.183Z,23.70
2018-08-12T20:28:57.378Z,23.60
2018-08-12T20:31:26.659Z,23.60
2018-08-12T20:33:55.748Z,23.50
2018-08-12T20:36:24.870Z,23.30
2018-08-12T20:38:54.170Z,22.80
2018-08-12T20:41:23.421Z,22.70
2018-08-12T20:43:52.595Z,22.60
2018-08-12T20:46:21.788Z,22.60
2018-08-12T20:48:50.906Z,22.70
2018-08-12T20:51:20.058Z,22.50
2018-08-12T20:53:49.231Z,22.40
2018-08-12T20:56:18.225Z,22.30
2018-08-12T20:58:47.313Z,22.20
2018-08-12T21:01:16.519Z,22.30
2018-08-12T21:03:45.661Z,22.30
2018-08-12T21:06:15.060Z,22.40
2018-08-12T21:08:44.544Z,22.40
2018-08-12T21:11:13.777Z,22.40
2018-08-12T21:13:42.918Z,22.40
2018-08-12T21:16:12.158Z,22.30
2018-08-12T21:18:41.173Z,22.30
2018-08-12T21:21:10.280Z,22.20
2018-08-12T21:23:39.483Z,21.80
2018-08-12T21:26:08.726Z,21.80
2018-08-12T21:28:37.962Z,21.70
2018-08-12T21:31:07.095Z,21.70
2018-08-12T21:33:36.531Z,21.80
2018-08-12T21:36:05.454Z,22.00
2018-08-12T21:38:34.495Z,21.90
2018-08-12T21:41:03.499Z,21.70
2018-08-12T21:43:32.648Z,21.90
2018-08-12T21:46:01.724Z,22.00
2018-08-12T21:48:30.930Z,21.90
2018-08-12T21:51:00.144Z,22.00
2018-08-12T21:53:29.264Z,21.90
2018-08-12T21:55:58.436Z,21.70
2018-08-12T21:58:27.635Z,21.60
2018-08-12T22:00:57.710Z,21.50
2018-08-12T22:03:26.989Z,21.50
2018-08-12T22:05:56.347Z,21.50
2018-08-12T22:08:25.539Z,21.60
2018-08-12T22:10:54.622Z,21.60
2018-08-12T22:13:23.761Z,21.50
2018-08-12T22:15:53.002Z,21.40
2018-08-12T22:18:22.192Z,21.50
2018-08-12T22:20:51.448Z,21.30
2018-08-12T22:23:20.522Z,21.20
2018-08-12T22:25:49.463Z,21.00
2018-08-12T22:28:18.611Z,20.90
2018-08-12T22:30:47.967Z,20.90
2018-08-12T22:33:17.210Z,20.80
2018-08-12T22:35:46.306Z,20.80
2018-08-12T22:38:15.604Z,20.80
2018-08-12T22:40:44.720Z,20.80
2018-08-12T22:43:13.816Z,21.00
2018-08-12T22:45:43.007Z,21.00
2018-08-12T22:48:12.286Z,21.00
2018-08-12T22:50:41.473Z,21.00
2018-08-12T22:53:10.693Z,20.70
2018-08-12T22:55:39.917Z,20.80
2018-08-12T22:58:09.211Z,20.80
2018-08-12T23:00:38.479Z,20.80
2018-08-12T23:03:08.356Z,20.80
2018-08-12T23:05:37.633Z,20.80
2018-08-12T23:08:10.357Z,20.80
2018-08-12T23:10:40.456Z,20.60
2018-08-12T23:13:09.915Z,20.60
2018-08-12T23:16:17.349Z,20.60
2018-08-12T23:18:46.476Z,20.60
2018-08-12T23:21:16.753Z,20.40
2018-08-12T23:23:47.108Z,20.40
2018-08-12T23:26:17.517Z,20.30
2018-08-12T23:28:46.863Z,20.20
2018-08-12T23:31:16.061Z,20.10
2018-08-12T23:33:45.350Z,20.10
2018-08-12T23:36:14.644Z,20.10
2018-08-12T23:38:43.705Z,20.10
2018-08-12T23:41:13.260Z,20.10
2018-08-12T23:43:42.356Z,20.10
2018-08-12T23:46:12.132Z,20.00
2018-08-12T23:48:41.361Z,20.00
2018-08-12T23:51:10.463Z,20.00
2018-08-12T23:53:39.765Z,19.90
2018-08-12T23:56:09.065Z,19.90
2018-08-12T23:58:38.352Z,19.70
